sensor_id;sensor_type;location;lat;lon;timestamp;P1;durP1;ratioP1;P2;durP2;ratioP2
36383;SDS011;22418;51.210;6.976;2023-11-19T00:01:42;9.13;;;1.80;;
36383;SDS011;22418;51.210;6.976;2023-11-19T00:04:12;3.37;;;1.67;;
36383;SDS011;22418;51.210;6.976;2023-11-19T00:06:43;3.30;;;1.90;;
36383;SDS011;22418;51.210;6.976;2023-11-19T00:09:14;4.33;;;2.03;;
36383;SDS011;22418;51.210;6.976;2023-11-19T00:11:46;6.30;;;2.03;;
36383;SDS011;22418;51.210;6.976;2023-11-19T00:14:17;3.37;;;1.77;;
36383;SDS011;22418;51.210;6.976;2023-11-19T00:16:48;5.88;;;2.10;;
36383;SDS011;22418;51.210;6.976;2023-11-19T00:19:21;12.15;;;1.92;;
36383;SDS011;22418;51.210;6.976;2023-11-19T00:21:51;1.73;;;1.43;;
36383;SDS011;22418;51.210;6.976;2023-11-19T00:24:22;2.30;;;1.67;;
36383;SDS011;22418;51.210;6.976;2023-11-19T00:26:53;2.47;;;1.73;;
36383;SDS011;22418;51.210;6.976;2023-11-19T00:29:23;2.73;;;1.90;;
36383;SDS011;22418;51.210;6.976;2023-11-19T00:31:54;9.48;;;1.80;;
36383;SDS011;22418;51.210;6.976;2023-11-19T00:34:25;7.53;;;1.43;;
36383;SDS011;22418;51.210;6.976;2023-11-19T00:36:55;3.13;;;1.60;;
36383;SDS011;22418;51.210;6.976;2023-11-19T00:39:26;2.93;;;1.37;;
36383;SDS011;22418;51.210;6.976;2023-11-19T00:41:57;2.40;;;1.30;;
36383;SDS011;22418;51.210;6.976;2023-11-19T00:44:27;7.13;;;1.57;;
36383;SDS011;22418;51.210;6.976;2023-11-19T00:46:58;4.20;;;1.90;;
36383;SDS011;22418;51.210;6.976;2023-11-19T00:49:30;6.85;;;1.67;;
36383;SDS011;22418;51.210;6.976;2023-11-19T00:52:02;5.07;;;2.00;;
36383;SDS011;22418;51.210;6.976;2023-11-19T00:54:33;5.68;;;1.67;;
36383;SDS011;22418;51.210;6.976;2023-11-19T00:57:04;4.17;;;1.70;;
36383;SDS011;22418;51.210;6.976;2023-11-19T00:59:35;3.88;;;1.92;;
36383;SDS011;22418;51.210;6.976;2023-11-19T01:02:06;4.97;;;1.70;;
36383;SDS011;22418;51.210;6.976;2023-11-19T01:04:37;2.77;;;1.50;;
36383;SDS011;22418;51.210;6.976;2023-11-19T01:07:08;4.65;;;1.80;;
36383;SDS011;22418;51.210;6.976;2023-11-19T01:09:42;4.15;;;2.05;;
36383;SDS011;22418;51.210;6.976;2023-11-19T01:12:13;2.13;;;1.57;;
36383;SDS011;22418;51.210;6.976;2023-11-19T01:14:43;3.73;;;1.80;;
36383;SDS011;22418;51.210;6.976;2023-11-19T01:17:14;2.57;;;1.77;;
36383;SDS011;22418;51.210;6.976;2023-11-19T01:19:45;3.10;;;1.60;;
36383;SDS011;22418;51.210;6.976;2023-11-19T01:22:15;3.53;;;1.90;;
36383;SDS011;22418;51.210;6.976;2023-11-19T01:24:46;4.18;;;1.85;;
36383;SDS011;22418;51.210;6.976;2023-11-19T01:27:17;4.93;;;1.67;;
36383;SDS011;22418;51.210;6.976;2023-11-19T01:29:47;4.67;;;2.00;;
36383;SDS011;22418;51.210;6.976;2023-11-19T01:32:18;3.27;;;1.57;;
36383;SDS011;22418;51.210;6.976;2023-11-19T01:34:49;3.57;;;1.60;;
36383;SDS011;22418;51.210;6.976;2023-11-19T01:37:19;5.17;;;1.60;;
36383;SDS011;22418;51.210;6.976;2023-11-19T01:39:50;2.57;;;1.37;;
36383;SDS011;22418;51.210;6.976;2023-11-19T01:42:20;4.87;;;1.40;;
36383;SDS011;22418;51.210;6.976;2023-11-19T01:44:57;5.90;;;1.60;;
36383;SDS011;22418;51.210;6.976;2023-11-19T01:47:29;3.83;;;1.50;;
36383;SDS011;22418;51.210;6.976;2023-11-19T01:50:01;2.05;;;1.20;;
36383;SDS011;22418;51.210;6.976;2023-11-19T01:52:36;6.65;;;1.30;;
36383;SDS011;22418;51.210;6.976;2023-11-19T01:55:07;5.75;;;1.70;;
36383;SDS011;22418;51.210;6.976;2023-11-19T01:57:40;3.25;;;1.45;;
36383;SDS011;22418;51.210;6.976;2023-11-19T02:00:11;5.75;;;1.45;;
36383;SDS011;22418;51.210;6.976;2023-11-19T02:02:43;2.42;;;1.15;;
36383;SDS011;22418;51.210;6.976;2023-11-19T02:05:16;3.25;;;1.15;;
36383;SDS011;22418;51.210;6.976;2023-11-19T02:07:47;5.45;;;1.15;;
36383;SDS011;22418;51.210;6.976;2023-11-19T02:10:17;4.53;;;1.00;;
36383;SDS011;22418;51.210;6.976;2023-11-19T02:15:19;4.30;;;0.70;;
36383;SDS011;22418;51.210;6.976;2023-11-19T02:17:50;11.07;;;1.57;;
36383;SDS011;22418;51.210;6.976;2023-11-19T02:20:21;5.35;;;1.02;;
36383;SDS011;22418;51.210;6.976;2023-11-19T02:22:52;5.43;;;1.10;;
36383;SDS011;22418;51.210;6.976;2023-11-19T02:25:24;3.47;;;1.27;;
36383;SDS011;22418;51.210;6.976;2023-11-19T02:28:00;4.35;;;1.00;;
36383;SDS011;22418;51.210;6.976;2023-11-19T02:30:32;6.47;;;1.58;;
36383;SDS011;22418;51.210;6.976;2023-11-19T02:33:03;3.43;;;1.07;;
36383;SDS011;22418;51.210;6.976;2023-11-19T02:35:35;6.57;;;1.35;;
36383;SDS011;22418;51.210;6.976;2023-11-19T02:38:06;4.67;;;1.50;;
36383;SDS011;22418;51.210;6.976;2023-11-19T02:40:37;5.32;;;1.42;;
36383;SDS011;22418;51.210;6.976;2023-11-19T02:43:07;6.60;;;1.97;;
36383;SDS011;22418;51.210;6.976;2023-11-19T02:45:38;10.13;;;1.67;;
36383;SDS011;22418;51.210;6.976;2023-11-19T02:48:09;6.33;;;1.60;;
36383;SDS011;22418;51.210;6.976;2023-11-19T02:50:40;9.67;;;1.77;;
36383;SDS011;22418;51.210;6.976;2023-11-19T02:53:11;12.18;;;2.03;;
36383;SDS011;22418;51.210;6.976;2023-11-19T02:55:42;9.10;;;2.38;;
36383;SDS011;22418;51.210;6.976;2023-11-19T02:58:18;14.05;;;2.10;;
36383;SDS011;22418;51.210;6.976;2023-11-19T03:00:54;17.77;;;2.80;;
36383;SDS011;22418;51.210;6.976;2023-11-19T03:03:27;19.42;;;2.70;;
36383;SDS011;22418;51.210;6.976;2023-11-19T03:06:00;11.95;;;2.13;;
36383;SDS011;22418;51.210;6.976;2023-11-19T03:08:35;11.85;;;2.63;;
36383;SDS011;22418;51.210;6.976;2023-11-19T03:11:06;14.30;;;2.85;;
36383;SDS011;22418;51.210;6.976;2023-11-19T03:13:36;9.73;;;2.13;;
36383;SDS011;22418;51.210;6.976;2023-11-19T03:16:07;12.47;;;3.07;;
36383;SDS011;22418;51.210;6.976;2023-11-19T03:18:38;18.50;;;3.50;;
36383;SDS011;22418;51.210;6.976;2023-11-19T03:21:09;14.20;;;3.35;;
36383;SDS011;22418;51.210;6.976;2023-11-19T03:23:40;14.93;;;2.80;;
36383;SDS011;22418;51.210;6.976;2023-11-19T03:26:10;21.83;;;3.20;;
36383;SDS011;22418;51.210;6.976;2023-11-19T03:28:41;16.23;;;2.85;;
36383;SDS011;22418;51.210;6.976;2023-11-19T03:31:12;20.10;;;3.57;;
36383;SDS011;22418;51.210;6.976;2023-11-19T03:33:42;20.77;;;3.40;;
36383;SDS011;22418;51.210;6.976;2023-11-19T03:36:13;12.47;;;3.10;;
36383;SDS011;22418;51.210;6.976;2023-11-19T03:38:44;16.80;;;2.93;;
36383;SDS011;22418;51.210;6.976;2023-11-19T03:41:14;24.50;;;4.03;;
36383;SDS011;22418;51.210;6.976;2023-11-19T03:46:18;29.23;;;3.90;;
36383;SDS011;22418;51.210;6.976;2023-11-19T03:48:50;20.65;;;3.35;;
36383;SDS011;22418;51.210;6.976;2023-11-19T03:51:20;12.87;;;2.90;;
36383;SDS011;22418;51.210;6.976;2023-11-19T03:53:51;27.33;;;3.47;;
36383;SDS011;22418;51.210;6.976;2023-11-19T03:56:21;20.03;;;3.13;;
36383;SDS011;22418;51.210;6.976;2023-11-19T03:58:52;20.43;;;3.43;;
36383;SDS011;22418;51.210;6.976;2023-11-19T04:01:22;20.20;;;3.63;;
36383;SDS011;22418;51.210;6.976;2023-11-19T04:03:53;24.90;;;4.10;;
36383;SDS011;22418;51.210;6.976;2023-11-19T04:06:25;19.55;;;3.40;;
36383;SDS011;22418;51.210;6.976;2023-11-19T04:08:56;22.03;;;3.27;;
36383;SDS011;22418;51.210;6.976;2023-11-19T04:11:27;25.83;;;3.80;;
36383;SDS011;22418;51.210;6.976;2023-11-19T04:13:58;20.65;;;3.38;;
36383;SDS011;22418;51.210;6.976;2023-11-19T04:16:28;23.40;;;3.93;;
36383;SDS011;22418;51.210;6.976;2023-11-19T04:18:59;24.47;;;3.67;;
36383;SDS011;22418;51.210;6.976;2023-11-19T04:21:29;25.03;;;4.40;;
36383;SDS011;22418;51.210;6.976;2023-11-19T04:24:00;23.92;;;3.90;;
36383;SDS011;22418;51.210;6.976;2023-11-19T04:26:31;27.88;;;4.78;;
36383;SDS011;22418;51.210;6.976;2023-11-19T04:29:02;22.87;;;4.67;;
36383;SDS011;22418;51.210;6.976;2023-11-19T04:31:32;21.70;;;3.70;;
36383;SDS011;22418;51.210;6.976;2023-11-19T04:34:03;32.43;;;4.27;;
36383;SDS011;22418;51.210;6.976;2023-11-19T04:36:33;24.57;;;4.60;;
36383;SDS011;22418;51.210;6.976;2023-11-19T04:39:05;33.10;;;4.57;;
36383;SDS011;22418;51.210;6.976;2023-11-19T04:41:46;18.90;;;4.00;;
36383;SDS011;22418;51.210;6.976;2023-11-19T04:44:18;25.10;;;4.65;;
36383;SDS011;22418;51.210;6.976;2023-11-19T04:46:49;28.23;;;4.83;;
36383;SDS011;22418;51.210;6.976;2023-11-19T04:49:19;29.33;;;5.03;;
36383;SDS011;22418;51.210;6.976;2023-11-19T04:51:50;26.65;;;4.53;;
36383;SDS011;22418;51.210;6.976;2023-11-19T04:54:21;33.40;;;4.60;;
36383;SDS011;22418;51.210;6.976;2023-11-19T04:56:51;26.37;;;4.20;;
36383;SDS011;22418;51.210;6.976;2023-11-19T04:59:22;27.90;;;4.90;;
36383;SDS011;22418;51.210;6.976;2023-11-19T05:01:53;30.00;;;4.43;;
36383;SDS011;22418;51.210;6.976;2023-11-19T05:04:23;25.87;;;4.33;;
36383;SDS011;22418;51.210;6.976;2023-11-19T05:06:54;22.07;;;4.03;;
36383;SDS011;22418;51.210;6.976;2023-11-19T05:09:24;23.00;;;4.57;;
36383;SDS011;22418;51.210;6.976;2023-11-19T05:11:55;36.07;;;5.47;;
36383;SDS011;22418;51.210;6.976;2023-11-19T05:14:25;26.47;;;3.93;;
36383;SDS011;22418;51.210;6.976;2023-11-19T05:16:56;25.03;;;5.37;;
36383;SDS011;22418;51.210;6.976;2023-11-19T05:19:27;26.47;;;5.03;;
36383;SDS011;22418;51.210;6.976;2023-11-19T05:21:57;33.83;;;5.03;;
36383;SDS011;22418;51.210;6.976;2023-11-19T05:24:28;32.90;;;4.93;;
36383;SDS011;22418;51.210;6.976;2023-11-19T05:26:59;39.33;;;5.00;;
36383;SDS011;22418;51.210;6.976;2023-11-19T05:29:30;31.43;;;4.70;;
36383;SDS011;22418;51.210;6.976;2023-11-19T05:32:00;26.60;;;4.53;;
36383;SDS011;22418;51.210;6.976;2023-11-19T05:34:31;28.83;;;4.33;;
36383;SDS011;22418;51.210;6.976;2023-11-19T05:37:01;33.50;;;5.07;;
36383;SDS011;22418;51.210;6.976;2023-11-19T05:39:32;23.02;;;4.90;;
36383;SDS011;22418;51.210;6.976;2023-11-19T05:42:03;32.80;;;4.80;;
36383;SDS011;22418;51.210;6.976;2023-11-19T05:44:33;25.95;;;4.30;;
36383;SDS011;22418;51.210;6.976;2023-11-19T05:47:04;29.03;;;4.60;;
36383;SDS011;22418;51.210;6.976;2023-11-19T05:49:35;33.57;;;5.13;;
36383;SDS011;22418;51.210;6.976;2023-11-19T05:52:06;29.67;;;4.37;;
36383;SDS011;22418;51.210;6.976;2023-11-19T05:54:38;23.30;;;3.38;;
36383;SDS011;22418;51.210;6.976;2023-11-19T05:57:08;27.15;;;4.13;;
36383;SDS011;22418;51.210;6.976;2023-11-19T05:59:39;28.17;;;4.33;;
36383;SDS011;22418;51.210;6.976;2023-11-19T06:02:09;34.33;;;4.90;;
36383;SDS011;22418;51.210;6.976;2023-11-19T06:04:40;34.20;;;4.47;;
36383;SDS011;22418;51.210;6.976;2023-11-19T06:07:14;29.92;;;4.60;;
36383;SDS011;22418;51.210;6.976;2023-11-19T06:09:45;33.70;;;5.50;;
36383;SDS011;22418;51.210;6.976;2023-11-19T06:12:15;27.07;;;5.67;;
36383;SDS011;22418;51.210;6.976;2023-11-19T06:14:46;29.40;;;4.50;;
36383;SDS011;22418;51.210;6.976;2023-11-19T06:17:17;28.70;;;4.43;;
36383;SDS011;22418;51.210;6.976;2023-11-19T06:19:50;29.70;;;4.53;;
36383;SDS011;22418;51.210;6.976;2023-11-19T06:22:21;25.27;;;4.43;;
36383;SDS011;22418;51.210;6.976;2023-11-19T06:24:51;29.70;;;5.60;;
36383;SDS011;22418;51.210;6.976;2023-11-19T06:27:22;24.87;;;4.40;;
36383;SDS011;22418;51.210;6.976;2023-11-19T06:29:52;30.30;;;4.87;;
36383;SDS011;22418;51.210;6.976;2023-11-19T06:32:24;29.37;;;4.53;;
36383;SDS011;22418;51.210;6.976;2023-11-19T06:34:54;44.95;;;5.30;;
36383;SDS011;22418;51.210;6.976;2023-11-19T06:37:26;40.55;;;5.65;;
36383;SDS011;22418;51.210;6.976;2023-11-19T06:39:57;30.52;;;4.35;;
36383;SDS011;22418;51.210;6.976;2023-11-19T06:42:28;33.83;;;4.97;;
36383;SDS011;22418;51.210;6.976;2023-11-19T06:44:59;35.42;;;6.25;;
36383;SDS011;22418;51.210;6.976;2023-11-19T06:47:29;34.53;;;5.80;;
36383;SDS011;22418;51.210;6.976;2023-11-19T06:50:00;48.93;;;6.23;;
36383;SDS011;22418;51.210;6.976;2023-11-19T06:52:31;34.87;;;4.67;;
36383;SDS011;22418;51.210;6.976;2023-11-19T06:55:01;41.70;;;4.80;;
36383;SDS011;22418;51.210;6.976;2023-11-19T06:57:32;44.45;;;5.38;;
36383;SDS011;22418;51.210;6.976;2023-11-19T07:00:03;41.23;;;6.17;;
36383;SDS011;22418;51.210;6.976;2023-11-19T07:02:35;29.70;;;4.80;;
36383;SDS011;22418;51.210;6.976;2023-11-19T07:05:06;46.03;;;6.30;;
36383;SDS011;22418;51.210;6.976;2023-11-19T07:07:38;25.15;;;5.15;;
36383;SDS011;22418;51.210;6.976;2023-11-19T07:10:10;36.88;;;6.15;;
36383;SDS011;22418;51.210;6.976;2023-11-19T07:12:40;57.17;;;6.03;;
36383;SDS011;22418;51.210;6.976;2023-11-19T07:15:12;34.67;;;5.22;;
36383;SDS011;22418;51.210;6.976;2023-11-19T07:17:42;36.17;;;6.23;;
36383;SDS011;22418;51.210;6.976;2023-11-19T07:20:15;33.72;;;5.50;;
36383;SDS011;22418;51.210;6.976;2023-11-19T07:22:45;32.97;;;5.38;;
36383;SDS011;22418;51.210;6.976;2023-11-19T07:25:16;32.60;;;5.67;;
36383;SDS011;22418;51.210;6.976;2023-11-19T07:27:47;29.38;;;5.50;;
36383;SDS011;22418;51.210;6.976;2023-11-19T07:30:19;50.15;;;7.18;;
36383;SDS011;22418;51.210;6.976;2023-11-19T07:32:49;28.97;;;4.77;;
36383;SDS011;22418;51.210;6.976;2023-11-19T07:35:20;32.60;;;4.90;;
36383;SDS011;22418;51.210;6.976;2023-11-19T07:37:51;35.40;;;5.57;;
36383;SDS011;22418;51.210;6.976;2023-11-19T07:40:21;33.37;;;5.80;;
36383;SDS011;22418;51.210;6.976;2023-11-19T07:42:52;35.47;;;6.53;;
36383;SDS011;22418;51.210;6.976;2023-11-19T07:45:23;40.38;;;5.75;;
36383;SDS011;22418;51.210;6.976;2023-11-19T07:47:54;39.27;;;6.50;;
36383;SDS011;22418;51.210;6.976;2023-11-19T07:50:25;33.90;;;5.77;;
36383;SDS011;22418;51.210;6.976;2023-11-19T07:52:55;34.03;;;5.00;;
36383;SDS011;22418;51.210;6.976;2023-11-19T07:55:26;40.83;;;7.20;;
36383;SDS011;22418;51.210;6.976;2023-11-19T07:57:57;35.67;;;6.00;;
36383;SDS011;22418;51.210;6.976;2023-11-19T08:00:27;37.50;;;6.07;;
36383;SDS011;22418;51.210;6.976;2023-11-19T08:02:58;44.57;;;6.00;;
36383;SDS011;22418;51.210;6.976;2023-11-19T08:05:29;38.70;;;6.33;;
36383;SDS011;22418;51.210;6.976;2023-11-19T08:07:59;51.70;;;6.50;;
36383;SDS011;22418;51.210;6.976;2023-11-19T08:10:30;33.27;;;6.17;;
36383;SDS011;22418;51.210;6.976;2023-11-19T08:13:00;40.83;;;5.87;;
36383;SDS011;22418;51.210;6.976;2023-11-19T08:15:31;36.20;;;5.77;;
36383;SDS011;22418;51.210;6.976;2023-11-19T08:18:02;31.67;;;4.88;;
36383;SDS011;22418;51.210;6.976;2023-11-19T08:20:33;33.27;;;5.50;;
36383;SDS011;22418;51.210;6.976;2023-11-19T08:23:04;32.92;;;5.97;;
36383;SDS011;22418;51.210;6.976;2023-11-19T08:25:35;41.20;;;5.32;;
36383;SDS011;22418;51.210;6.976;2023-11-19T08:28:05;34.53;;;4.77;;
36383;SDS011;22418;51.210;6.976;2023-11-19T08:30:36;32.50;;;5.37;;
36383;SDS011;22418;51.210;6.976;2023-11-19T08:33:06;32.97;;;6.10;;
36383;SDS011;22418;51.210;6.976;2023-11-19T08:35:37;33.20;;;5.13;;
36383;SDS011;22418;51.210;6.976;2023-11-19T08:38:07;44.20;;;7.03;;
36383;SDS011;22418;51.210;6.976;2023-11-19T08:40:38;38.87;;;6.80;;
36383;SDS011;22418;51.210;6.976;2023-11-19T08:43:09;36.13;;;6.78;;
36383;SDS011;22418;51.210;6.976;2023-11-19T08:45:39;36.67;;;5.53;;
36383;SDS011;22418;51.210;6.976;2023-11-19T08:48:10;45.73;;;6.53;;
36383;SDS011;22418;51.210;6.976;2023-11-19T08:50:40;40.60;;;6.30;;
36383;SDS011;22418;51.210;6.976;2023-11-19T08:53:11;40.07;;;6.07;;
36383;SDS011;22418;51.210;6.976;2023-11-19T08:55:42;49.57;;;6.63;;
36383;SDS011;22418;51.210;6.976;2023-11-19T08:58:12;29.00;;;5.17;;
36383;SDS011;22418;51.210;6.976;2023-11-19T09:00:43;32.20;;;5.47;;
36383;SDS011;22418;51.210;6.976;2023-11-19T09:03:13;41.53;;;6.27;;
36383;SDS011;22418;51.210;6.976;2023-11-19T09:05:44;43.77;;;5.90;;
36383;SDS011;22418;51.210;6.976;2023-11-19T09:08:14;48.23;;;6.27;;
36383;SDS011;22418;51.210;6.976;2023-11-19T09:10:45;45.70;;;6.67;;
36383;SDS011;22418;51.210;6.976;2023-11-19T09:13:15;36.77;;;5.40;;
36383;SDS011;22418;51.210;6.976;2023-11-19T09:15:46;36.17;;;6.47;;
36383;SDS011;22418;51.210;6.976;2023-11-19T09:18:17;35.50;;;6.03;;
36383;SDS011;22418;51.210;6.976;2023-11-19T09:20:47;34.93;;;6.00;;
36383;SDS011;22418;51.210;6.976;2023-11-19T09:23:18;40.03;;;5.93;;
36383;SDS011;22418;51.210;6.976;2023-11-19T09:25:48;25.13;;;5.18;;
36383;SDS011;22418;51.210;6.976;2023-11-19T09:28:19;39.50;;;6.70;;
36383;SDS011;22418;51.210;6.976;2023-11-19T09:30:49;32.47;;;5.93;;
36383;SDS011;22418;51.210;6.976;2023-11-19T09:33:20;32.10;;;5.30;;
36383;SDS011;22418;51.210;6.976;2023-11-19T09:35:50;44.53;;;6.77;;
36383;SDS011;22418;51.210;6.976;2023-11-19T09:38:21;36.57;;;5.80;;
36383;SDS011;22418;51.210;6.976;2023-11-19T09:40:52;45.40;;;6.75;;
36383;SDS011;22418;51.210;6.976;2023-11-19T09:43:22;44.90;;;6.83;;
36383;SDS011;22418;51.210;6.976;2023-11-19T09:45:53;45.13;;;6.40;;
36383;SDS011;22418;51.210;6.976;2023-11-19T09:48:26;35.70;;;5.88;;
36383;SDS011;22418;51.210;6.976;2023-11-19T09:50:57;40.15;;;6.05;;
36383;SDS011;22418;51.210;6.976;2023-11-19T09:53:29;45.13;;;7.13;;
36383;SDS011;22418;51.210;6.976;2023-11-19T09:56:02;45.67;;;7.32;;
36383;SDS011;22418;51.210;6.976;2023-11-19T09:58:34;36.25;;;6.30;;
36383;SDS011;22418;51.210;6.976;2023-11-19T10:01:05;37.00;;;6.43;;
36383;SDS011;22418;51.210;6.976;2023-11-19T10:03:40;39.55;;;7.05;;
36383;SDS011;22418;51.210;6.976;2023-11-19T10:06:14;44.78;;;7.68;;
36383;SDS011;22418;51.210;6.976;2023-11-19T10:08:45;30.67;;;5.43;;
36383;SDS011;22418;51.210;6.976;2023-11-19T10:11:15;38.10;;;6.50;;
36383;SDS011;22418;51.210;6.976;2023-11-19T10:13:47;42.28;;;7.22;;
36383;SDS011;22418;51.210;6.976;2023-11-19T10:16:18;39.85;;;6.03;;
36383;SDS011;22418;51.210;6.976;2023-11-19T10:18:49;38.65;;;7.07;;
36383;SDS011;22418;51.210;6.976;2023-11-19T10:21:20;36.20;;;5.88;;
36383;SDS011;22418;51.210;6.976;2023-11-19T10:23:52;50.58;;;8.13;;
36383;SDS011;22418;51.210;6.976;2023-11-19T10:26:25;46.85;;;6.40;;
36383;SDS011;22418;51.210;6.976;2023-11-19T10:28:56;39.58;;;6.95;;
36383;SDS011;22418;51.210;6.976;2023-11-19T10:31:27;42.40;;;6.87;;
36383;SDS011;22418;51.210;6.976;2023-11-19T10:33:58;32.47;;;5.93;;
36383;SDS011;22418;51.210;6.976;2023-11-19T10:36:38;48.17;;;7.55;;
36383;SDS011;22418;51.210;6.976;2023-11-19T10:39:10;38.40;;;6.38;;
36383;SDS011;22418;51.210;6.976;2023-11-19T10:41:41;43.23;;;7.47;;
36383;SDS011;22418;51.210;6.976;2023-11-19T10:44:12;35.67;;;6.30;;
36383;SDS011;22418;51.210;6.976;2023-11-19T10:47:01;37.47;;;5.28;;
36383;SDS011;22418;51.210;6.976;2023-11-19T10:49:35;36.60;;;5.35;;
36383;SDS011;22418;51.210;6.976;2023-11-19T10:52:07;36.07;;;6.50;;
36383;SDS011;22418;51.210;6.976;2023-11-19T10:54:39;31.33;;;5.15;;
36383;SDS011;22418;51.210;6.976;2023-11-19T10:57:14;41.35;;;7.38;;
36383;SDS011;22418;51.210;6.976;2023-11-19T10:59:55;44.35;;;6.40;;
36383;SDS011;22418;51.210;6.976;2023-11-19T11:02:32;34.55;;;5.32;;
36383;SDS011;22418;51.210;6.976;2023-11-19T11:05:09;35.95;;;5.68;;
36383;SDS011;22418;51.210;6.976;2023-11-19T11:07:42;39.22;;;5.88;;
36383;SDS011;22418;51.210;6.976;2023-11-19T11:10:16;38.78;;;6.35;;
36383;SDS011;22418;51.210;6.976;2023-11-19T11:12:46;38.45;;;6.97;;
36383;SDS011;22418;51.210;6.976;2023-11-19T11:15:20;34.17;;;5.38;;
36383;SDS011;22418;51.210;6.976;2023-11-19T11:17:51;22.80;;;4.43;;
36383;SDS011;22418;51.210;6.976;2023-11-19T11:20:36;40.60;;;5.78;;
36383;SDS011;22418;51.210;6.976;2023-11-19T11:38:23;32.97;;;5.32;;
36383;SDS011;22418;51.210;6.976;2023-11-19T11:43:51;32.85;;;5.00;;
36383;SDS011;22418;51.210;6.976;2023-11-19T11:49:02;33.20;;;5.50;;
36383;SDS011;22418;51.210;6.976;2023-11-19T11:57:02;31.58;;;5.10;;
36383;SDS011;22418;51.210;6.976;2023-11-19T11:59:41;31.15;;;6.38;;
36383;SDS011;22418;51.210;6.976;2023-11-19T12:02:16;25.83;;;5.35;;
36383;SDS011;22418;51.210;6.976;2023-11-19T12:04:49;30.85;;;5.13;;
36383;SDS011;22418;51.210;6.976;2023-11-19T12:07:22;27.58;;;4.95;;
36383;SDS011;22418;51.210;6.976;2023-11-19T12:10:05;28.02;;;5.03;;
36383;SDS011;22418;51.210;6.976;2023-11-19T12:12:37;31.17;;;4.82;;
36383;SDS011;22418;51.210;6.976;2023-11-19T12:15:10;41.13;;;6.15;;
36383;SDS011;22418;51.210;6.976;2023-11-19T12:17:48;44.67;;;5.82;;
36383;SDS011;22418;51.210;6.976;2023-11-19T12:20:23;31.45;;;4.82;;
36383;SDS011;22418;51.210;6.976;2023-11-19T12:22:55;24.17;;;4.53;;
36383;SDS011;22418;51.210;6.976;2023-11-19T12:25:25;32.70;;;4.13;;
36383;SDS011;22418;51.210;6.976;2023-11-19T12:27:56;25.03;;;4.50;;
36383;SDS011;22418;51.210;6.976;2023-11-19T12:30:26;35.13;;;4.83;;
36383;SDS011;22418;51.210;6.976;2023-11-19T12:32:59;28.05;;;4.90;;
36383;SDS011;22418;51.210;6.976;2023-11-19T12:35:29;28.03;;;4.70;;
36383;SDS011;22418;51.210;6.976;2023-11-19T12:38:00;32.03;;;5.57;;
36383;SDS011;22418;51.210;6.976;2023-11-19T12:40:30;32.67;;;5.17;;
36383;SDS011;22418;51.210;6.976;2023-11-19T12:43:01;23.87;;;4.37;;
36383;SDS011;22418;51.210;6.976;2023-11-19T12:45:35;28.40;;;5.13;;
36383;SDS011;22418;51.210;6.976;2023-11-19T12:48:07;32.42;;;5.22;;
36383;SDS011;22418;51.210;6.976;2023-11-19T12:50:55;34.75;;;6.18;;
36383;SDS011;22418;51.210;6.976;2023-11-19T12:53:46;28.88;;;5.07;;
36383;SDS011;22418;51.210;6.976;2023-11-19T12:56:22;27.33;;;4.20;;
36383;SDS011;22418;51.210;6.976;2023-11-19T12:58:53;39.55;;;5.15;;
36383;SDS011;22418;51.210;6.976;2023-11-19T13:01:23;31.97;;;5.67;;
36383;SDS011;22418;51.210;6.976;2023-11-19T13:03:54;30.57;;;4.63;;
36383;SDS011;22418;51.210;6.976;2023-11-19T13:06:24;35.20;;;5.23;;
36383;SDS011;22418;51.210;6.976;2023-11-19T13:08:55;31.97;;;5.03;;
36383;SDS011;22418;51.210;6.976;2023-11-19T13:11:32;23.90;;;5.00;;
36383;SDS011;22418;51.210;6.976;2023-11-19T13:14:05;30.02;;;4.80;;
36383;SDS011;22418;51.210;6.976;2023-11-19T13:16:38;30.70;;;5.60;;
36383;SDS011;22418;51.210;6.976;2023-11-19T13:19:09;32.20;;;4.40;;
36383;SDS011;22418;51.210;6.976;2023-11-19T13:21:40;28.15;;;4.75;;
36383;SDS011;22418;51.210;6.976;2023-11-19T13:24:10;32.07;;;4.50;;
36383;SDS011;22418;51.210;6.976;2023-11-19T13:26:41;22.87;;;3.80;;
36383;SDS011;22418;51.210;6.976;2023-11-19T13:29:12;34.63;;;5.27;;
36383;SDS011;22418;51.210;6.976;2023-11-19T13:31:42;22.97;;;3.90;;
36383;SDS011;22418;51.210;6.976;2023-11-19T13:34:13;27.80;;;4.63;;
36383;SDS011;22418;51.210;6.976;2023-11-19T13:36:43;19.80;;;4.53;;
36383;SDS011;22418;51.210;6.976;2023-11-19T13:39:14;28.67;;;5.43;;
36383;SDS011;22418;51.210;6.976;2023-11-19T13:41:52;22.25;;;3.83;;
36383;SDS011;22418;51.210;6.976;2023-11-19T13:44:23;28.43;;;4.23;;
36383;SDS011;22418;51.210;6.976;2023-11-19T13:46:53;32.53;;;5.80;;
36383;SDS011;22418;51.210;6.976;2023-11-19T13:49:24;31.93;;;5.43;;
36383;SDS011;22418;51.210;6.976;2023-11-19T13:51:54;31.33;;;4.95;;
36383;SDS011;22418;51.210;6.976;2023-11-19T13:54:25;25.20;;;4.17;;
36383;SDS011;22418;51.210;6.976;2023-11-19T13:56:56;24.37;;;4.93;;
36383;SDS011;22418;51.210;6.976;2023-11-19T13:59:30;24.88;;;3.90;;
36383;SDS011;22418;51.210;6.976;2023-11-19T14:02:02;27.25;;;4.63;;
36383;SDS011;22418;51.210;6.976;2023-11-19T14:04:33;22.83;;;4.70;;
36383;SDS011;22418;51.210;6.976;2023-11-19T14:07:04;24.83;;;4.47;;
36383;SDS011;22418;51.210;6.976;2023-11-19T14:09:34;31.00;;;5.43;;
36383;SDS011;22418;51.210;6.976;2023-11-19T14:12:05;18.03;;;4.50;;
36383;SDS011;22418;51.210;6.976;2023-11-19T14:14:35;36.07;;;5.80;;
36383;SDS011;22418;51.210;6.976;2023-11-19T14:17:06;28.60;;;5.93;;
36383;SDS011;22418;51.210;6.976;2023-11-19T14:19:37;25.65;;;4.88;;
36383;SDS011;22418;51.210;6.976;2023-11-19T14:22:09;36.88;;;5.50;;
36383;SDS011;22418;51.210;6.976;2023-11-19T14:24:39;36.55;;;5.60;;
36383;SDS011;22418;51.210;6.976;2023-11-19T14:27:12;34.45;;;5.78;;
36383;SDS011;22418;51.210;6.976;2023-11-19T14:29:43;41.57;;;5.93;;
36383;SDS011;22418;51.210;6.976;2023-11-19T14:32:15;30.60;;;6.03;;
36383;SDS011;22418;51.210;6.976;2023-11-19T14:34:45;34.23;;;5.30;;
36383;SDS011;22418;51.210;6.976;2023-11-19T14:37:16;33.07;;;5.93;;
36383;SDS011;22418;51.210;6.976;2023-11-19T14:39:46;32.23;;;6.17;;
36383;SDS011;22418;51.210;6.976;2023-11-19T14:42:17;30.30;;;4.60;;
36383;SDS011;22418;51.210;6.976;2023-11-19T14:44:47;42.27;;;5.83;;
36383;SDS011;22418;51.210;6.976;2023-11-19T14:47:18;33.47;;;5.75;;
36383;SDS011;22418;51.210;6.976;2023-11-19T14:49:52;36.80;;;5.68;;
36383;SDS011;22418;51.210;6.976;2023-11-19T14:52:23;26.20;;;4.43;;
36383;SDS011;22418;51.210;6.976;2023-11-19T14:54:53;29.77;;;4.40;;
36383;SDS011;22418;51.210;6.976;2023-11-19T14:57:24;28.50;;;5.20;;
36383;SDS011;22418;51.210;6.976;2023-11-19T14:59:54;26.37;;;5.90;;
36383;SDS011;22418;51.210;6.976;2023-11-19T15:02:25;26.17;;;4.77;;
36383;SDS011;22418;51.210;6.976;2023-11-19T15:04:55;31.47;;;4.90;;
36383;SDS011;22418;51.210;6.976;2023-11-19T15:07:26;33.27;;;5.07;;
36383;SDS011;22418;51.210;6.976;2023-11-19T15:09:57;33.93;;;6.20;;
36383;SDS011;22418;51.210;6.976;2023-11-19T15:12:28;39.35;;;6.00;;
36383;SDS011;22418;51.210;6.976;2023-11-19T15:14:59;28.08;;;5.25;;
36383;SDS011;22418;51.210;6.976;2023-11-19T15:17:30;40.33;;;6.80;;
36383;SDS011;22418;51.210;6.976;2023-11-19T15:20:00;31.87;;;4.93;;
36383;SDS011;22418;51.210;6.976;2023-11-19T15:25:02;25.85;;;4.82;;
36383;SDS011;22418;51.210;6.976;2023-11-19T15:27:33;24.67;;;4.43;;
36383;SDS011;22418;51.210;6.976;2023-11-19T15:30:04;25.37;;;4.63;;
36383;SDS011;22418;51.210;6.976;2023-11-19T15:32:35;23.88;;;5.90;;
36383;SDS011;22418;51.210;6.976;2023-11-19T15:35:09;26.85;;;4.85;;